sensor_id;sensor_type;location;lat;lon;timestamp;P1;durP1;ratioP1;P2;durP2;ratioP2
20828;SDS011;10575;50.124;8.582;2023-08-06T00:01:30;6.97;;;3.88;;
20828;SDS011;10575;50.124;8.582;2023-08-06T00:03:58;4.90;;;4.30;;
20828;SDS011;10575;50.124;8.582;2023-08-06T00:06:25;4.13;;;3.72;;
20828;SDS011;10575;50.124;8.582;2023-08-06T00:08:50;8.52;;;4.50;;
20828;SDS011;10575;50.124;8.582;2023-08-06T00:11:28;5.40;;;4.05;;
20828;SDS011;10575;50.124;8.582;2023-08-06T00:13:53;5.88;;;4.07;;
20828;SDS011;10575;50.124;8.582;2023-08-06T00:16:19;6.15;;;3.55;;
20828;SDS011;10575;50.124;8.582;2023-08-06T00:18:44;4.75;;;3.95;;
20828;SDS011;10575;50.124;8.582;2023-08-06T00:21:10;4.68;;;3.45;;
20828;SDS011;10575;50.124;8.582;2023-08-06T00:23:37;5.93;;;3.70;;
20828;SDS011;10575;50.124;8.582;2023-08-06T00:26:02;5.85;;;3.75;;
20828;SDS011;10575;50.124;8.582;2023-08-06T00:28:40;7.15;;;4.43;;
20828;SDS011;10575;50.124;8.582;2023-08-06T00:31:14;5.40;;;4.40;;
20828;SDS011;10575;50.124;8.582;2023-08-06T00:33:40;6.70;;;4.00;;
20828;SDS011;10575;50.124;8.582;2023-08-06T00:36:05;5.32;;;4.22;;
20828;SDS011;10575;50.124;8.582;2023-08-06T00:38:31;4.88;;;3.90;;
20828;SDS011;10575;50.124;8.582;2023-08-06T00:40:56;10.10;;;4.60;;
20828;SDS011;10575;50.124;8.582;2023-08-06T00:43:22;4.97;;;4.45;;
20828;SDS011;10575;50.124;8.582;2023-08-06T00:45:47;6.20;;;4.13;;
20828;SDS011;10575;50.124;8.582;2023-08-06T00:48:13;5.13;;;4.20;;
20828;SDS011;10575;50.124;8.582;2023-08-06T00:50:39;7.15;;;4.68;;
20828;SDS011;10575;50.124;8.582;2023-08-06T00:53:05;7.43;;;4.40;;
20828;SDS011;10575;50.124;8.582;2023-08-06T00:55:30;8.65;;;4.30;;
20828;SDS011;10575;50.124;8.582;2023-08-06T00:57:56;4.68;;;4.05;;
20828;SDS011;10575;50.124;8.582;2023-08-06T01:00:22;5.63;;;4.22;;
20828;SDS011;10575;50.124;8.582;2023-08-06T01:02:49;6.45;;;4.25;;
20828;SDS011;10575;50.124;8.582;2023-08-06T01:05:14;8.35;;;4.80;;
20828;SDS011;10575;50.124;8.582;2023-08-06T01:07:50;7.85;;;4.57;;
20828;SDS011;10575;50.124;8.582;2023-08-06T01:10:25;5.75;;;5.05;;
20828;SDS011;10575;50.124;8.582;2023-08-06T01:16:02;5.05;;;4.30;;
20828;SDS011;10575;50.124;8.582;2023-08-06T01:18:30;6.78;;;4.65;;
20828;SDS011;10575;50.124;8.582;2023-08-06T01:20:56;5.90;;;4.30;;
20828;SDS011;10575;50.124;8.582;2023-08-06T01:23:22;6.10;;;4.63;;
20828;SDS011;10575;50.124;8.582;2023-08-06T01:31:31;6.35;;;4.10;;
20828;SDS011;10575;50.124;8.582;2023-08-06T01:34:17;4.97;;;4.20;;
20828;SDS011;10575;50.124;8.582;2023-08-06T01:36:52;4.15;;;3.75;;
20828;SDS011;10575;50.124;8.582;2023-08-06T01:39:18;7.43;;;4.35;;
20828;SDS011;10575;50.124;8.582;2023-08-06T01:41:47;8.57;;;4.47;;
20828;SDS011;10575;50.124;8.582;2023-08-06T01:44:16;6.13;;;4.43;;
20828;SDS011;10575;50.124;8.582;2023-08-06T01:49:43;6.10;;;4.32;;
20828;SDS011;10575;50.124;8.582;2023-08-06T01:52:10;4.47;;;4.07;;
20828;SDS011;10575;50.124;8.582;2023-08-06T01:54:38;10.65;;;4.30;;
20828;SDS011;10575;50.124;8.582;2023-08-06T01:57:04;7.95;;;4.03;;
20828;SDS011;10575;50.124;8.582;2023-08-06T01:59:29;7.20;;;4.13;;
20828;SDS011;10575;50.124;8.582;2023-08-06T02:01:55;9.82;;;4.25;;
20828;SDS011;10575;50.124;8.582;2023-08-06T02:04:20;7.78;;;4.05;;
20828;SDS011;10575;50.124;8.582;2023-08-06T02:06:46;11.52;;;4.28;;
20828;SDS011;10575;50.124;8.582;2023-08-06T02:09:11;5.00;;;3.95;;
20828;SDS011;10575;50.124;8.582;2023-08-06T02:11:37;7.85;;;4.45;;
20828;SDS011;10575;50.124;8.582;2023-08-06T02:14:02;5.43;;;4.22;;
20828;SDS011;10575;50.124;8.582;2023-08-06T02:16:30;6.00;;;4.20;;
20828;SDS011;10575;50.124;8.582;2023-08-06T02:18:56;9.93;;;4.75;;
20828;SDS011;10575;50.124;8.582;2023-08-06T02:21:21;5.80;;;3.90;;
20828;SDS011;10575;50.124;8.582;2023-08-06T02:23:47;6.68;;;4.30;;
20828;SDS011;10575;50.124;8.582;2023-08-06T02:26:12;4.80;;;3.92;;
20828;SDS011;10575;50.124;8.582;2023-08-06T02:28:38;5.10;;;4.25;;
20828;SDS011;10575;50.124;8.582;2023-08-06T02:31:03;6.57;;;4.13;;
20828;SDS011;10575;50.124;8.582;2023-08-06T02:33:29;7.25;;;4.18;;
20828;SDS011;10575;50.124;8.582;2023-08-06T02:36:01;10.60;;;3.58;;
20828;SDS011;10575;50.124;8.582;2023-08-06T02:38:28;5.43;;;3.83;;
20828;SDS011;10575;50.124;8.582;2023-08-06T02:40:54;5.05;;;3.63;;
20828;SDS011;10575;50.124;8.582;2023-08-06T02:43:20;5.65;;;3.90;;
20828;SDS011;10575;50.124;8.582;2023-08-06T02:45:45;6.25;;;3.63;;
20828;SDS011;10575;50.124;8.582;2023-08-06T02:48:11;5.68;;;3.63;;
20828;SDS011;10575;50.124;8.582;2023-08-06T02:50:52;4.53;;;3.80;;
20828;SDS011;10575;50.124;8.582;2023-08-06T02:53:17;5.13;;;3.70;;
20828;SDS011;10575;50.124;8.582;2023-08-06T02:55:46;10.85;;;4.80;;
20828;SDS011;10575;50.124;8.582;2023-08-06T02:58:15;9.05;;;4.28;;
20828;SDS011;10575;50.124;8.582;2023-08-06T03:00:41;4.28;;;3.50;;
20828;SDS011;10575;50.124;8.582;2023-08-06T03:03:08;6.50;;;3.75;;
20828;SDS011;10575;50.124;8.582;2023-08-06T03:05:33;6.82;;;3.70;;
20828;SDS011;10575;50.124;8.582;2023-08-06T03:08:08;5.88;;;3.60;;
20828;SDS011;10575;50.124;8.582;2023-08-06T03:10:43;8.07;;;4.10;;
20828;SDS011;10575;50.124;8.582;2023-08-06T03:13:08;5.40;;;3.70;;
20828;SDS011;10575;50.124;8.582;2023-08-06T03:15:34;5.43;;;3.10;;
20828;SDS011;10575;50.124;8.582;2023-08-06T03:18:00;5.55;;;3.38;;
20828;SDS011;10575;50.124;8.582;2023-08-06T03:20:25;5.88;;;3.25;;
20828;SDS011;10575;50.124;8.582;2023-08-06T03:22:53;7.82;;;3.67;;
20828;SDS011;10575;50.124;8.582;2023-08-06T03:25:19;6.07;;;3.45;;
20828;SDS011;10575;50.124;8.582;2023-08-06T03:27:44;4.03;;;3.00;;
20828;SDS011;10575;50.124;8.582;2023-08-06T03:30:10;6.47;;;3.38;;
20828;SDS011;10575;50.124;8.582;2023-08-06T03:32:35;4.32;;;2.90;;
20828;SDS011;10575;50.124;8.582;2023-08-06T03:35:01;4.60;;;3.28;;
20828;SDS011;10575;50.124;8.582;2023-08-06T03:37:26;5.18;;;3.17;;
20828;SDS011;10575;50.124;8.582;2023-08-06T03:39:52;4.80;;;2.78;;
20828;SDS011;10575;50.124;8.582;2023-08-06T03:42:17;4.50;;;3.20;;
20828;SDS011;10575;50.124;8.582;2023-08-06T03:44:43;5.32;;;3.65;;
20828;SDS011;10575;50.124;8.582;2023-08-06T03:47:08;3.47;;;3.03;;
20828;SDS011;10575;50.124;8.582;2023-08-06T03:49:34;5.93;;;2.85;;
20828;SDS011;10575;50.124;8.582;2023-08-06T03:52:00;7.05;;;3.30;;
20828;SDS011;10575;50.124;8.582;2023-08-06T03:54:25;5.00;;;3.00;;
20828;SDS011;10575;50.124;8.582;2023-08-06T03:56:55;4.70;;;3.28;;
20828;SDS011;10575;50.124;8.582;2023-08-06T03:59:20;3.22;;;2.75;;
20828;SDS011;10575;50.124;8.582;2023-08-06T04:01:46;4.07;;;3.33;;
20828;SDS011;10575;50.124;8.582;2023-08-06T04:04:11;4.68;;;2.95;;
20828;SDS011;10575;50.124;8.582;2023-08-06T04:06:37;5.20;;;3.00;;
20828;SDS011;10575;50.124;8.582;2023-08-06T04:09:02;6.53;;;3.47;;
20828;SDS011;10575;50.124;8.582;2023-08-06T04:11:33;4.95;;;3.10;;
20828;SDS011;10575;50.124;8.582;2023-08-06T04:13:58;5.32;;;2.95;;
20828;SDS011;10575;50.124;8.582;2023-08-06T04:16:24;4.47;;;3.00;;
20828;SDS011;10575;50.124;8.582;2023-08-06T04:18:51;6.35;;;3.40;;
20828;SDS011;10575;50.124;8.582;2023-08-06T04:21:18;5.72;;;2.95;;
20828;SDS011;10575;50.124;8.582;2023-08-06T04:23:43;7.32;;;3.05;;
20828;SDS011;10575;50.124;8.582;2023-08-06T04:26:18;3.88;;;2.67;;
20828;SDS011;10575;50.124;8.582;2023-08-06T04:28:52;5.00;;;3.03;;
20828;SDS011;10575;50.124;8.582;2023-08-06T04:31:23;5.75;;;2.80;;
20828;SDS011;10575;50.124;8.582;2023-08-06T04:33:48;6.32;;;2.95;;
20828;SDS011;10575;50.124;8.582;2023-08-06T04:36:14;5.20;;;2.42;;
20828;SDS011;10575;50.124;8.582;2023-08-06T04:38:39;4.88;;;2.33;;
20828;SDS011;10575;50.124;8.582;2023-08-06T04:41:09;4.35;;;2.60;;
20828;SDS011;10575;50.124;8.582;2023-08-06T04:43:35;4.70;;;2.55;;
20828;SDS011;10575;50.124;8.582;2023-08-06T04:46:01;5.60;;;2.17;;
20828;SDS011;10575;50.124;8.582;2023-08-06T04:48:26;5.25;;;2.80;;
20828;SDS011;10575;50.124;8.582;2023-08-06T04:50:52;3.55;;;2.78;;
20828;SDS011;10575;50.124;8.582;2023-08-06T04:53:17;5.72;;;2.60;;
20828;SDS011;10575;50.124;8.582;2023-08-06T04:55:43;2.65;;;2.08;;
20828;SDS011;10575;50.124;8.582;2023-08-06T04:58:09;3.70;;;2.40;;
20828;SDS011;10575;50.124;8.582;2023-08-06T05:00:35;6.03;;;2.42;;
20828;SDS011;10575;50.124;8.582;2023-08-06T05:03:01;6.57;;;2.30;;
20828;SDS011;10575;50.124;8.582;2023-08-06T05:05:27;3.05;;;2.10;;
20828;SDS011;10575;50.124;8.582;2023-08-06T05:07:54;5.20;;;2.35;;
20828;SDS011;10575;50.124;8.582;2023-08-06T05:10:21;5.10;;;2.20;;
20828;SDS011;10575;50.124;8.582;2023-08-06T05:12:48;3.22;;;2.10;;
20828;SDS011;10575;50.124;8.582;2023-08-06T05:15:14;3.42;;;1.90;;
20828;SDS011;10575;50.124;8.582;2023-08-06T05:17:40;4.63;;;2.17;;
20828;SDS011;10575;50.124;8.582;2023-08-06T05:20:05;7.22;;;1.67;;
20828;SDS011;10575;50.124;8.582;2023-08-06T05:22:31;2.85;;;1.30;;
20828;SDS011;10575;50.124;8.582;2023-08-06T05:24:56;2.22;;;1.55;;
20828;SDS011;10575;50.124;8.582;2023-08-06T05:27:22;2.70;;;1.58;;
20828;SDS011;10575;50.124;8.582;2023-08-06T05:32:37;3.00;;;1.70;;
20828;SDS011;10575;50.124;8.582;2023-08-06T05:40:14;2.67;;;1.58;;
20828;SDS011;10575;50.124;8.582;2023-08-06T05:42:40;6.28;;;1.77;;
20828;SDS011;10575;50.124;8.582;2023-08-06T05:45:06;1.85;;;1.50;;
20828;SDS011;10575;50.124;8.582;2023-08-06T05:47:32;4.10;;;1.58;;
20828;SDS011;10575;50.124;8.582;2023-08-06T05:50:12;3.08;;;2.00;;
20828;SDS011;10575;50.124;8.582;2023-08-06T05:52:38;2.95;;;1.58;;
20828;SDS011;10575;50.124;8.582;2023-08-06T05:55:04;3.25;;;1.60;;
20828;SDS011;10575;50.124;8.582;2023-08-06T05:57:29;3.45;;;1.52;;
20828;SDS011;10575;50.124;8.582;2023-08-06T05:59:55;4.65;;;1.60;;
20828;SDS011;10575;50.124;8.582;2023-08-06T06:02:20;7.53;;;1.30;;
20828;SDS011;10575;50.124;8.582;2023-08-06T06:04:48;1.88;;;1.40;;
20828;SDS011;10575;50.124;8.582;2023-08-06T06:07:14;3.47;;;1.83;;
20828;SDS011;10575;50.124;8.582;2023-08-06T06:09:39;4.90;;;1.38;;
20828;SDS011;10575;50.124;8.582;2023-08-06T06:12:05;4.55;;;1.50;;
20828;SDS011;10575;50.124;8.582;2023-08-06T06:14:31;2.05;;;1.35;;
20828;SDS011;10575;50.124;8.582;2023-08-06T06:16:57;1.63;;;1.33;;
20828;SDS011;10575;50.124;8.582;2023-08-06T06:19:23;3.88;;;1.38;;
20828;SDS011;10575;50.124;8.582;2023-08-06T06:21:49;1.20;;;1.10;;
20828;SDS011;10575;50.124;8.582;2023-08-06T06:24:14;3.35;;;1.30;;
20828;SDS011;10575;50.124;8.582;2023-08-06T06:26:40;3.63;;;1.30;;
20828;SDS011;10575;50.124;8.582;2023-08-06T06:29:05;2.58;;;1.00;;
20828;SDS011;10575;50.124;8.582;2023-08-06T06:31:31;3.45;;;0.98;;
20828;SDS011;10575;50.124;8.582;2023-08-06T06:33:56;0.85;;;0.82;;
20828;SDS011;10575;50.124;8.582;2023-08-06T06:36:22;4.25;;;1.30;;
20828;SDS011;10575;50.124;8.582;2023-08-06T06:38:48;3.38;;;0.95;;
20828;SDS011;10575;50.124;8.582;2023-08-06T06:50:28;4.47;;;0.93;;
20828;SDS011;10575;50.124;8.582;2023-08-06T06:52:53;2.50;;;0.70;;
20828;SDS011;10575;50.124;8.582;2023-08-06T06:55:19;0.95;;;0.80;;
20828;SDS011;10575;50.124;8.582;2023-08-06T06:57:44;1.70;;;1.00;;
20828;SDS011;10575;50.124;8.582;2023-08-06T07:00:11;0.90;;;0.80;;
20828;SDS011;10575;50.124;8.582;2023-08-06T07:02:37;1.30;;;0.77;;
20828;SDS011;10575;50.124;8.582;2023-08-06T07:05:02;0.93;;;0.80;;
20828;SDS011;10575;50.124;8.582;2023-08-06T07:07:28;1.55;;;0.80;;
20828;SDS011;10575;50.124;8.582;2023-08-06T07:09:53;0.90;;;0.80;;
20828;SDS011;10575;50.124;8.582;2023-08-06T07:12:19;3.40;;;0.90;;
20828;SDS011;10575;50.124;8.582;2023-08-06T07:14:46;1.38;;;0.60;;
20828;SDS011;10575;50.124;8.582;2023-08-06T07:17:12;1.10;;;0.70;;
20828;SDS011;10575;50.124;8.582;2023-08-06T07:19:37;0.68;;;0.60;;
20828;SDS011;10575;50.124;8.582;2023-08-06T07:22:03;2.22;;;0.60;;
20828;SDS011;10575;50.124;8.582;2023-08-06T07:24:29;0.93;;;0.88;;
20828;SDS011;10575;50.124;8.582;2023-08-06T07:26:54;1.17;;;0.60;;
20828;SDS011;10575;50.124;8.582;2023-08-06T07:29:20;1.00;;;0.77;;
20828;SDS011;10575;50.124;8.582;2023-08-06T07:31:47;1.15;;;0.80;;
20828;SDS011;10575;50.124;8.582;2023-08-06T07:34:13;1.67;;;0.80;;
20828;SDS011;10575;50.124;8.582;2023-08-06T07:36:38;1.42;;;0.80;;
20828;SDS011;10575;50.124;8.582;2023-08-06T07:39:04;0.75;;;0.73;;
20828;SDS011;10575;50.124;8.582;2023-08-06T07:41:31;1.23;;;0.75;;
20828;SDS011;10575;50.124;8.582;2023-08-06T07:43:56;1.13;;;0.80;;
20828;SDS011;10575;50.124;8.582;2023-08-06T07:46:22;0.90;;;0.70;;
20828;SDS011;10575;50.124;8.582;2023-08-06T07:48:47;1.25;;;0.77;;
20828;SDS011;10575;50.124;8.582;2023-08-06T07:51:13;0.95;;;0.75;;
20828;SDS011;10575;50.124;8.582;2023-08-06T07:53:38;1.15;;;0.80;;
20828;SDS011;10575;50.124;8.582;2023-08-06T07:56:04;0.60;;;0.60;;
20828;SDS011;10575;50.124;8.582;2023-08-06T07:58:30;1.48;;;0.60;;
20828;SDS011;10575;50.124;8.582;2023-08-06T08:00:56;2.05;;;0.80;;
20828;SDS011;10575;50.124;8.582;2023-08-06T08:03:22;0.90;;;0.90;;
20828;SDS011;10575;50.124;8.582;2023-08-06T08:05:47;1.23;;;0.77;;
20828;SDS011;10575;50.124;8.582;2023-08-06T08:08:13;0.80;;;0.80;;
20828;SDS011;10575;50.124;8.582;2023-08-06T08:10:38;5.70;;;0.90;;
20828;SDS011;10575;50.124;8.582;2023-08-06T08:13:04;1.20;;;1.00;;
20828;SDS011;10575;50.124;8.582;2023-08-06T08:15:30;2.17;;;0.77;;
20828;SDS011;10575;50.124;8.582;2023-08-06T08:17:57;1.25;;;0.70;;
20828;SDS011;10575;50.124;8.582;2023-08-06T08:20:23;1.88;;;0.85;;
20828;SDS011;10575;50.124;8.582;2023-08-06T08:22:49;2.40;;;0.70;;
20828;SDS011;10575;50.124;8.582;2023-08-06T08:25:15;0.98;;;0.73;;
20828;SDS011;10575;50.124;8.582;2023-08-06T08:27:41;2.80;;;0.60;;
20828;SDS011;10575;50.124;8.582;2023-08-06T08:30:07;1.73;;;0.70;;
20828;SDS011;10575;50.124;8.582;2023-08-06T08:32:33;1.80;;;0.90;;
20828;SDS011;10575;50.124;8.582;2023-08-06T08:34:58;1.02;;;0.70;;
20828;SDS011;10575;50.124;8.582;2023-08-06T08:37:24;2.65;;;0.80;;
20828;SDS011;10575;50.124;8.582;2023-08-06T08:39:49;0.73;;;0.73;;
20828;SDS011;10575;50.124;8.582;2023-08-06T08:42:15;0.82;;;0.73;;
20828;SDS011;10575;50.124;8.582;2023-08-06T08:44:42;1.83;;;0.80;;
20828;SDS011;10575;50.124;8.582;2023-08-06T08:47:08;3.20;;;0.90;;
20828;SDS011;10575;50.124;8.582;2023-08-06T08:49:36;1.13;;;0.85;;
20828;SDS011;10575;50.124;8.582;2023-08-06T08:52:03;1.13;;;0.90;;
20828;SDS011;10575;50.124;8.582;2023-08-06T08:54:33;0.95;;;0.82;;
20828;SDS011;10575;50.124;8.582;2023-08-06T08:57:00;1.80;;;0.88;;
20828;SDS011;10575;50.124;8.582;2023-08-06T08:59:25;0.70;;;0.70;;
20828;SDS011;10575;50.124;8.582;2023-08-06T09:01:51;2.00;;;1.00;;
20828;SDS011;10575;50.124;8.582;2023-08-06T09:04:18;1.45;;;0.70;;
20828;SDS011;10575;50.124;8.582;2023-08-06T09:06:45;1.65;;;1.10;;
20828;SDS011;10575;50.124;8.582;2023-08-06T09:09:12;1.38;;;1.00;;
20828;SDS011;10575;50.124;8.582;2023-08-06T09:11:44;1.95;;;1.27;;
20828;SDS011;10575;50.124;8.582;2023-08-06T09:14:11;1.42;;;0.93;;
20828;SDS011;10575;50.124;8.582;2023-08-06T09:16:37;0.88;;;0.85;;
20828;SDS011;10575;50.124;8.582;2023-08-06T09:19:09;0.88;;;0.80;;
20828;SDS011;10575;50.124;8.582;2023-08-06T09:21:40;1.38;;;0.90;;
20828;SDS011;10575;50.124;8.582;2023-08-06T09:24:10;1.75;;;1.00;;
20828;SDS011;10575;50.124;8.582;2023-08-06T09:26:37;0.70;;;0.70;;
20828;SDS011;10575;50.124;8.582;2023-08-06T09:29:07;1.15;;;0.85;;
20828;SDS011;10575;50.124;8.582;2023-08-06T09:31:36;2.38;;;0.80;;
20828;SDS011;10575;50.124;8.582;2023-08-06T09:34:14;0.85;;;0.50;;
20828;SDS011;10575;50.124;8.582;2023-08-06T09:36:42;1.95;;;0.57;;
20828;SDS011;10575;50.124;8.582;2023-08-06T09:39:19;0.88;;;0.60;;
20828;SDS011;10575;50.124;8.582;2023-08-06T09:41:46;0.40;;;0.40;;
20828;SDS011;10575;50.124;8.582;2023-08-06T09:44:15;0.82;;;0.47;;
20828;SDS011;10575;50.124;8.582;2023-08-06T09:49:17;1.67;;;0.98;;
20828;SDS011;10575;50.124;8.582;2023-08-06T09:51:44;2.75;;;1.00;;
20828;SDS011;10575;50.124;8.582;2023-08-06T09:54:12;0.95;;;0.70;;
20828;SDS011;10575;50.124;8.582;2023-08-06T09:56:38;1.75;;;0.60;;
20828;SDS011;10575;50.124;8.582;2023-08-06T09:59:05;0.60;;;0.60;;
20828;SDS011;10575;50.124;8.582;2023-08-06T10:01:32;0.85;;;0.55;;
20828;SDS011;10575;50.124;8.582;2023-08-06T10:03:58;2.38;;;0.70;;
20828;SDS011;10575;50.124;8.582;2023-08-06T10:06:26;0.77;;;0.60;;
20828;SDS011;10575;50.124;8.582;2023-08-06T10:08:53;1.35;;;0.70;;
20828;SDS011;10575;50.124;8.582;2023-08-06T10:11:18;0.60;;;0.60;;
20828;SDS011;10575;50.124;8.582;2023-08-06T10:13:48;0.68;;;0.68;;
20828;SDS011;10575;50.124;8.582;2023-08-06T10:16:17;1.67;;;0.75;;
20828;SDS011;10575;50.124;8.582;2023-08-06T10:18:43;1.55;;;0.82;;
20828;SDS011;10575;50.124;8.582;2023-08-06T10:21:09;0.82;;;0.68;;
20828;SDS011;10575;50.124;8.582;2023-08-06T10:23:35;0.90;;;0.68;;
20828;SDS011;10575;50.124;8.582;2023-08-06T10:26:03;0.70;;;0.70;;
20828;SDS011;10575;50.124;8.582;2023-08-06T10:28:38;1.45;;;0.60;;
20828;SDS011;10575;50.124;8.582;2023-08-06T10:31:04;0.73;;;0.60;;
20828;SDS011;10575;50.124;8.582;2023-08-06T10:33:40;1.48;;;0.80;;
20828;SDS011;10575;50.124;8.582;2023-08-06T10:36:10;2.05;;;0.98;;
20828;SDS011;10575;50.124;8.582;2023-08-06T10:38:43;1.08;;;0.70;;
20828;SDS011;10575;50.124;8.582;2023-08-06T10:41:14;0.95;;;0.70;;
20828;SDS011;10575;50.124;8.582;2023-08-06T10:44:04;1.83;;;0.80;;
20828;SDS011;10575;50.124;8.582;2023-08-06T10:46:32;1.55;;;0.80;;
20828;SDS011;10575;50.124;8.582;2023-08-06T10:48:57;0.70;;;0.50;;
20828;SDS011;10575;50.124;8.582;2023-08-06T10:51:24;0.98;;;0.50;;
20828;SDS011;10575;50.124;8.582;2023-08-06T10:53:50;0.70;;;0.60;;
20828;SDS011;10575;50.124;8.582;2023-08-06T10:56:19;4.43;;;0.80;;
20828;SDS011;10575;50.124;8.582;2023-08-06T10:58:51;0.60;;;0.60;;
20828;SDS011;10575;50.124;8.582;2023-08-06T11:01:19;1.30;;;0.80;;
20828;SDS011;10575;50.124;8.582;2023-08-06T11:03:46;0.80;;;0.50;;
20828;SDS011;10575;50.124;8.582;2023-08-06T11:06:18;1.10;;;0.90;;
20828;SDS011;10575;50.124;8.582;2023-08-06T11:08:51;1.50;;;0.90;;
20828;SDS011;10575;50.124;8.582;2023-08-06T11:11:18;1.05;;;0.90;;
20828;SDS011;10575;50.124;8.582;2023-08-06T11:13:46;1.10;;;0.70;;
20828;SDS011;10575;50.124;8.582;2023-08-06T11:16:12;1.17;;;0.75;;
20828;SDS011;10575;50.124;8.582;2023-08-06T11:18:45;0.80;;;0.65;;
20828;SDS011;10575;50.124;8.582;2023-08-06T11:21:12;0.50;;;0.50;;
20828;SDS011;10575;50.124;8.582;2023-08-06T11:23:38;0.60;;;0.60;;
20828;SDS011;10575;50.124;8.582;2023-08-06T11:26:04;0.60;;;0.55;;
20828;SDS011;10575;50.124;8.582;2023-08-06T11:28:29;0.57;;;0.57;;
20828;SDS011;10575;50.124;8.582;2023-08-06T11:30:55;1.17;;;0.63;;
20828;SDS011;10575;50.124;8.582;2023-08-06T11:33:25;0.63;;;0.60;;
20828;SDS011;10575;50.124;8.582;2023-08-06T11:35:51;2.17;;;0.70;;
20828;SDS011;10575;50.124;8.582;2023-08-06T11:38:17;3.13;;;0.75;;
20828;SDS011;10575;50.124;8.582;2023-08-06T11:40:50;0.65;;;0.60;;
20828;SDS011;10575;50.124;8.582;2023-08-06T11:43:17;3.08;;;0.88;;
20828;SDS011;10575;50.124;8.582;2023-08-06T11:45:47;9.55;;;1.23;;
20828;SDS011;10575;50.124;8.582;2023-08-06T11:48:13;3.42;;;0.80;;
20828;SDS011;10575;50.124;8.582;2023-08-06T11:50:39;4.35;;;0.70;;
20828;SDS011;10575;50.124;8.582;2023-08-06T11:53:05;3.80;;;0.60;;
20828;SDS011;10575;50.124;8.582;2023-08-06T11:55:33;1.83;;;0.70;;
20828;SDS011;10575;50.124;8.582;2023-08-06T11:57:59;2.15;;;0.52;;
20828;SDS011;10575;50.124;8.582;2023-08-06T12:00:29;2.47;;;0.50;;
20828;SDS011;10575;50.124;8.582;2023-08-06T12:02:55;0.88;;;0.50;;
20828;SDS011;10575;50.124;8.582;2023-08-06T12:05:22;1.60;;;0.60;;
20828;SDS011;10575;50.124;8.582;2023-08-06T12:07:49;2.47;;;0.80;;
20828;SDS011;10575;50.124;8.582;2023-08-06T12:10:23;1.40;;;0.70;;
20828;SDS011;10575;50.124;8.582;2023-08-06T12:12:50;2.72;;;0.73;;
20828;SDS011;10575;50.124;8.582;2023-08-06T12:15:15;0.88;;;0.68;;
20828;SDS011;10575;50.124;8.582;2023-08-06T12:17:41;3.20;;;0.60;;
20828;SDS011;10575;50.124;8.582;2023-08-06T12:20:07;2.10;;;0.80;;
20828;SDS011;10575;50.124;8.582;2023-08-06T12:22:34;0.95;;;0.77;;
20828;SDS011;10575;50.124;8.582;2023-08-06T12:25:01;0.90;;;0.80;;
20828;SDS011;10575;50.124;8.582;2023-08-06T12:27:28;2.33;;;1.20;;
20828;SDS011;10575;50.124;8.582;2023-08-06T12:29:54;1.13;;;1.00;;
20828;SDS011;10575;50.124;8.582;2023-08-06T12:32:19;4.70;;;0.60;;
20828;SDS011;10575;50.124;8.582;2023-08-06T12:34:45;0.68;;;0.50;;
20828;SDS011;10575;50.124;8.582;2023-08-06T12:37:10;0.50;;;0.50;;
20828;SDS011;10575;50.124;8.582;2023-08-06T12:39:36;2.20;;;0.45;;
20828;SDS011;10575;50.124;8.582;2023-08-06T12:42:02;0.93;;;0.85;;
20828;SDS011;10575;50.124;8.582;2023-08-06T12:44:29;0.88;;;0.65;;
20828;SDS011;10575;50.124;8.582;2023-08-06T12:46:55;0.77;;;0.50;;
20828;SDS011;10575;50.124;8.582;2023-08-06T12:49:21;0.50;;;0.50;;
20828;SDS011;10575;50.124;8.582;2023-08-06T12:51:47;0.40;;;0.40;;
20828;SDS011;10575;50.124;8.582;2023-08-06T12:54:14;2.67;;;0.60;;
20828;SDS011;10575;50.124;8.582;2023-08-06T12:56:41;0.80;;;0.60;;
20828;SDS011;10575;50.124;8.582;2023-08-06T12:59:06;1.20;;;0.60;;
20828;SDS011;10575;50.124;8.582;2023-08-06T13:01:32;1.13;;;0.50;;
20828;SDS011;10575;50.124;8.582;2023-08-06T13:03:57;0.68;;;0.63;;
20828;SDS011;10575;50.124;8.582;2023-08-06T13:06:24;0.75;;;0.50;;
20828;SDS011;10575;50.124;8.582;2023-08-06T13:08:50;0.75;;;0.50;;
20828;SDS011;10575;50.124;8.582;2023-08-06T13:11:16;0.80;;;0.68;;
20828;SDS011;10575;50.124;8.582;2023-08-06T13:13:41;0.60;;;0.60;;
20828;SDS011;10575;50.124;8.582;2023-08-06T13:16:07;2.15;;;0.50;;
20828;SDS011;10575;50.124;8.582;2023-08-06T13:18:32;1.13;;;0.70;;
20828;SDS011;10575;50.124;8.582;2023-08-06T13:20:58;1.38;;;0.60;;
20828;SDS011;10575;50.124;8.582;2023-08-06T13:23:23;0.60;;;0.60;;
20828;SDS011;10575;50.124;8.582;2023-08-06T13:25:49;0.55;;;0.50;;
20828;SDS011;10575;50.124;8.582;2023-08-06T13:28:14;1.02;;;0.63;;
20828;SDS011;10575;50.124;8.582;2023-08-06T13:30:40;1.02;;;0.65;;
20828;SDS011;10575;50.124;8.582;2023-08-06T13:33:09;8.65;;;1.27;;
20828;SDS011;10575;50.124;8.582;2023-08-06T13:35:35;2.25;;;0.80;;
20828;SDS011;10575;50.124;8.582;2023-08-06T13:38:01;1.83;;;0.70;;
20828;SDS011;10575;50.124;8.582;2023-08-06T13:40:30;0.90;;;0.80;;
20828;SDS011;10575;50.124;8.582;2023-08-06T13:42:57;2.25;;;0.80;;
20828;SDS011;10575;50.124;8.582;2023-08-06T13:45:23;1.23;;;0.90;;
20828;SDS011;10575;50.124;8.582;2023-08-06T13:47:48;1.08;;;0.68;;
20828;SDS011;10575;50.124;8.582;2023-08-06T13:50:14;1.00;;;0.70;;
20828;SDS011;10575;50.124;8.582;2023-08-06T13:52:39;2.83;;;0.82;;
20828;SDS011;10575;50.124;8.582;2023-08-06T13:55:05;1.75;;;0.80;;
20828;SDS011;10575;50.124;8.582;2023-08-06T13:57:32;1.42;;;0.98;;
20828;SDS011;10575;50.124;8.582;2023-08-06T13:59:58;0.93;;;0.88;;
20828;SDS011;10575;50.124;8.582;2023-08-06T14:02:24;1.65;;;0.57;;
20828;SDS011;10575;50.124;8.582;2023-08-06T14:04:50;2.42;;;0.73;;
20828;SDS011;10575;50.124;8.582;2023-08-06T14:07:16;1.02;;;0.77;;
20828;SDS011;10575;50.124;8.582;2023-08-06T14:09:42;1.27;;;0.75;;
20828;SDS011;10575;50.124;8.582;2023-08-06T14:12:09;0.80;;;0.60;;
20828;SDS011;10575;50.124;8.582;2023-08-06T14:14:34;2.55;;;0.70;;
20828;SDS011;10575;50.124;8.582;2023-08-06T14:17:00;2.35;;;0.90;;
20828;SDS011;10575;50.124;8.582;2023-08-06T14:19:26;0.52;;;0.52;;
20828;SDS011;10575;50.124;8.582;2023-08-06T14:21:51;0.75;;;0.65;;
20828;SDS011;10575;50.124;8.582;2023-08-06T14:24:17;1.00;;;0.77;;
20828;SDS011;10575;50.124;8.582;2023-08-06T14:26:43;2.45;;;1.08;;
20828;SDS011;10575;50.124;8.582;2023-08-06T14:29:09;1.67;;;1.17;;
20828;SDS011;10575;50.124;8.582;2023-08-06T14:31:34;2.20;;;1.13;;
20828;SDS011;10575;50.124;8.582;2023-08-06T14:34:00;1.10;;;1.00;;
20828;SDS011;10575;50.124;8.582;2023-08-06T14:36:25;2.90;;;1.00;;
20828;SDS011;10575;50.124;8.582;2023-08-06T14:38:51;4.40;;;1.20;;
20828;SDS011;10575;50.124;8.582;2023-08-06T14:41:17;1.55;;;1.20;;
20828;SDS011;10575;50.124;8.582;2023-08-06T14:43:42;1.38;;;1.20;;
20828;SDS011;10575;50.124;8.582;2023-08-06T14:46:08;2.05;;;1.00;;
20828;SDS011;10575;50.124;8.582;2023-08-06T14:48:33;0.90;;;0.80;;
20828;SDS011;10575;50.124;8.582;2023-08-06T14:50:59;2.78;;;0.90;;
20828;SDS011;10575;50.124;8.582;2023-08-06T14:53:24;1.33;;;0.90;;
20828;SDS011;10575;50.124;8.582;2023-08-06T14:55:50;1.73;;;0.90;;
20828;SDS011;10575;50.124;8.582;2023-08-06T14:58:15;1.45;;;0.80;;
20828;SDS011;10575;50.124;8.582;2023-08-06T15:00:41;0.70;;;0.70;;
20828;SDS011;10575;50.124;8.582;2023-08-06T15:03:07;0.80;;;0.80;;
20828;SDS011;10575;50.124;8.582;2023-08-06T15:05:32;0.95;;;0.73;;
20828;SDS011;10575;50.124;8.582;2023-08-06T15:07:58;0.50;;;0.50;;
20828;SDS011;10575;50.124;8.582;2023-08-06T15:10:24;1.35;;;0.75;;
20828;SDS011;10575;50.124;8.582;2023-08-06T15:12:50;0.50;;;0.50;;
20828;SDS011;10575;50.124;8.582;2023-08-06T15:15:16;0.73;;;0.73;;
20828;SDS011;10575;50.124;8.582;2023-08-06T15:17:42;0.70;;;0.57;;